createdAt,value
2022-12-06T00:02:02.864Z,119.97
2022-12-06T00:07:33.889Z,134.10
2022-12-06T00:12:37.549Z,155.45
2022-12-06T00:17:43.185Z,171.38
2022-12-06T00:22:46.147Z,143.88
2022-12-06T00:27:52.091Z,141.35
2022-12-06T00:32:54.626Z,144.73
2022-12-06T00:37:57.440Z,130.70
2022-12-06T00:43:03.151Z,128.75
2022-12-06T00:48:28.653Z,130.57
2022-12-06T00:59:52.807Z,128.50
2022-12-06T01:05:13.540Z,115.55
2022-12-06T01:10:16.881Z,122.22
2022-12-06T01:16:01.479Z,103.25
2022-12-06T01:21:10.314Z,87.22
2022-12-06T01:26:17.157Z,75.85
2022-12-06T01:31:19.880Z,76.53
2022-12-06T01:36:24.575Z,77.78
2022-12-06T01:41:27.947Z,69.30
2022-12-06T01:46:49.414Z,58.42
2022-12-06T01:51:56.417Z,55.67
2022-12-06T01:56:59.417Z,56.08
2022-12-06T02:02:04.995Z,60.22
2022-12-06T02:07:13.784Z,60.28
2022-12-06T02:12:16.493Z,66.28
2022-12-06T02:17:46.635Z,61.60
2022-12-06T02:23:12.955Z,58.47
2022-12-06T02:28:32.633Z,52.08
2022-12-06T02:33:53.184Z,61.70
2022-12-06T02:39:00.143Z,56.88
2022-12-06T02:44:07.653Z,55.75
2022-12-06T02:49:12.234Z,54.88
2022-12-06T02:54:51.401Z,55.13
2022-12-06T02:59:55.905Z,45.92
2022-12-06T03:05:33.791Z,41.72
2022-12-06T03:10:56.104Z,44.50
2022-12-06T03:16:04.245Z,43.05
2022-12-06T03:21:09.821Z,48.70
2022-12-06T03:27:07.058Z,46.53
2022-12-06T03:38:31.824Z,46.05
2022-12-06T03:43:48.349Z,50.75
2022-12-06T03:49:46.086Z,50.40
2022-12-06T04:02:45.438Z,43.75
2022-12-06T04:27:15.303Z,45.75
2022-12-06T04:32:38.072Z,69.20
2022-12-06T04:46:59.153Z,111.93
2022-12-06T04:56:38.714Z,81.93
2022-12-06T05:01:48.914Z,64.83
2022-12-06T05:07:34.131Z,63.13
2022-12-06T05:13:55.397Z,59.17
2022-12-06T05:19:08.055Z,55.00
2022-12-06T05:24:10.650Z,64.50
2022-12-06T05:30:23.929Z,48.30
2022-12-06T05:35:05.884Z,88.95
2022-12-06T05:52:21.084Z,85.95
2022-12-06T05:57:30.570Z,105.30
2022-12-06T06:02:35.073Z,90.60
2022-12-06T06:07:40.662Z,68.97
2022-12-06T06:18:45.114Z,54.97
2022-12-06T06:41:31.159Z,67.20
2022-12-06T06:46:36.760Z,55.72
2022-12-06T06:52:30.353Z,62.08
2022-12-06T06:58:28.185Z,57.42
2022-12-06T07:09:15.985Z,58.60
2022-12-06T07:14:18.853Z,58.67
2022-12-06T07:19:21.438Z,45.47
2022-12-06T07:24:41.606Z,80.43
2022-12-06T07:30:00.710Z,98.82
2022-12-06T07:42:24.018Z,92.25
2022-12-06T07:47:56.578Z,114.22
2022-12-06T07:53:51.413Z,80.90
2022-12-06T07:58:59.212Z,117.22
2022-12-06T08:04:04.607Z,184.57
2022-12-06T08:09:08.323Z,97.68
2022-12-06T08:14:11.522Z,76.32
2022-12-06T08:19:13.927Z,53.63
2022-12-06T08:24:16.487Z,63.20
2022-12-06T08:29:21.432Z,63.53
2022-12-06T08:34:27.254Z,77.00
2022-12-06T08:39:32.359Z,74.20
2022-12-06T08:44:35.113Z,45.50
2022-12-06T08:49:47.164Z,56.28
2022-12-06T08:54:50.029Z,62.08
2022-12-06T08:59:52.579Z,47.30
2022-12-06T09:04:54.945Z,55.97
2022-12-06T09:10:28.367Z,41.53
2022-12-06T09:15:49.962Z,41.38
2022-12-06T09:21:06.912Z,47.70
2022-12-06T09:26:12.730Z,60.72
2022-12-06T09:31:20.922Z,68.72
2022-12-06T09:36:32.018Z,54.03
2022-12-06T09:41:58.156Z,60.72
2022-12-06T09:47:40.709Z,56.25
2022-12-06T09:53:04.271Z,51.75
2022-12-06T09:58:46.423Z,55.60
2022-12-06T10:04:18.967Z,50.80
2022-12-06T10:09:34.443Z,51.15
2022-12-06T10:15:01.282Z,51.03
2022-12-06T10:20:26.094Z,51.50
2022-12-06T10:26:01.805Z,43.10
2022-12-06T10:31:37.532Z,38.78
2022-12-06T10:37:10.357Z,45.25
2022-12-06T10:42:39.010Z,41.88
2022-12-06T10:47:45.734Z,48.22
2022-12-06T10:53:01.510Z,41.13
2022-12-06T10:58:35.811Z,43.22
2022-12-06T11:04:13.178Z,53.65
2022-12-06T11:09:51.872Z,58.43
2022-12-06T11:15:28.344Z,66.22
2022-12-06T11:20:48.576Z,57.15
2022-12-06T11:26:34.277Z,45.17
2022-12-06T11:31:45.091Z,56.65
2022-12-06T11:36:59.622Z,53.63
2022-12-06T11:42:04.079Z,62.13
2022-12-06T11:47:08.854Z,51.80
2022-12-06T11:52:44.480Z,55.58
2022-12-06T11:57:58.839Z,46.38
2022-12-06T12:03:01.390Z,47.10
2022-12-06T12:08:29.742Z,82.68
2022-12-06T12:13:50.925Z,76.32
2022-12-06T12:19:45.515Z,50.58
2022-12-06T12:30:40.347Z,52.88
2022-12-06T12:42:14.781Z,44.80
2022-12-06T12:48:13.899Z,40.50
2022-12-06T12:53:58.822Z,41.17
2022-12-06T12:59:23.211Z,284.42
2022-12-06T13:05:37.533Z,117.85
2022-12-06T13:11:07.771Z,60.47
2022-12-06T13:17:03.295Z,51.70
2022-12-06T13:22:44.584Z,47.60
2022-12-06T13:27:59.672Z,47.90
2022-12-06T13:33:24.802Z,40.50
2022-12-06T13:38:33.277Z,40.10
2022-12-06T13:43:40.018Z,101.50
2022-12-06T13:48:47.369Z,289.55
2022-12-06T13:54:24.206Z,374.40
2022-12-06T13:59:37.736Z,139.32
2022-12-06T14:04:46.836Z,98.68
2022-12-06T14:09:50.209Z,59.60
2022-12-06T14:15:05.661Z,144.93
2022-12-06T14:20:27.854Z,183.20
2022-12-06T14:25:31.727Z,88.53
2022-12-06T14:36:24.167Z,39.25
2022-12-06T14:41:53.883Z,43.72
2022-12-06T14:47:22.659Z,82.10
2022-12-06T14:52:32.105Z,56.95
2022-12-06T14:57:50.993Z,31.10
2022-12-06T15:03:33.150Z,38.50
2022-12-06T15:08:38.597Z,45.03
2022-12-06T15:13:42.670Z,68.85
2022-12-06T15:18:59.667Z,119.38
2022-12-06T15:24:02.200Z,156.48
2022-12-06T15:29:28.035Z,120.07
2022-12-06T15:34:35.115Z,181.43
2022-12-06T15:39:38.324Z,144.77
2022-12-06T15:45:00.799Z,86.22
2022-12-06T15:50:21.796Z,86.18
2022-12-06T15:55:31.565Z,113.20
2022-12-06T16:01:10.627Z,133.45
2022-12-06T16:06:14.752Z,210.93
